Algiers, Louisiana
Current Conditions -  °F | °C
As of 8:55 PM on Wednesday 26 Nov 2014 (Local Time) from KVSH Reporting Station
Clear Clear  
Wind Chill: 14°   Ceiling: Unl
Heat Index: 14°   Visibility: 10mi
Dew Point:   Wind: 7mph
Humidity: 59%   Direction: 210°SSW
Pressure: 30.25"   Gusts: NA
Location:  29.935°N, 90.0314°W
Report Text: KVSH 270255Z AUTO 21006KT 10SM CLR 14/06 A3025 RMK AO1 52017
Loading
Personal Weather Stations






























Interactive Weather Map New forecast layout! Learn more

10-Day Weather Forecast

Advertisements
Track Severe Weather on mobile